Time;durP1;ratioP1;P1;durP2;ratioP2;P2;SDS_P1;SDS_P2;PMS_P1;PMS_P2;Temp;Humidity;BMP_temperature;BMP_pressure;BME280_temperature;BME280_humidity;BME280_pressure;Samples;Min_cycle;Max_cycle;Signal;HPM_P1;HPM_P2
2022/01/28 00:04:52;;;;;;;21.23;11.17;;;;;;;3.69;60.17;101156.25;5032628;28;20274;-85
2022/01/28 00:07:18;;;;;;;21.83;11.10;;;;;;;4.05;59.28;101227.47;5033077;28;20164;-85
2022/01/28 00:09:44;;;;;;;23.80;12.50;;;;;;;3.74;59.38;101170.41;5036333;28;20176;-86
2022/01/28 00:12:10;;;;;;;23.83;11.97;;;;;;;3.60;59.06;101155.09;5036892;28;20270;-85
2022/01/28 00:17:27;;;;;;;23.47;11.17;;;;;;;3.58;59.12;101176.78;5036351;28;20196;-85
2022/01/28 00:36:48;;;;;;;16.63;8.80;;;;;;;3.33;58.91;101150.88;5043758;28;20254;-86
2022/01/28 00:39:14;;;;;;;14.47;8.37;;;;;;;3.28;58.38;101146.88;5043373;28;20176;-84
2022/01/28 00:41:40;;;;;;;14.90;9.27;;;;;;;3.13;57.48;101107.84;5043816;28;20183;-85
2022/01/28 00:44:06;;;;;;;12.03;7.37;;;;;;;3.23;57.13;101127.63;5045661;28;20176;-84
2022/01/28 00:46:31;;;;;;;17.07;9.17;;;;;;;3.39;57.49;101149.13;5044637;28;20179;-86
2022/01/28 00:48:57;;;;;;;19.67;8.97;;;;;;;3.53;56.64;101145.81;5048513;28;20176;-84
2022/01/28 00:51:23;;;;;;;13.80;7.67;;;;;;;3.58;56.27;101139.72;5044644;28;20237;-85
2022/01/28 00:53:49;;;;;;;11.60;7.30;;;;;;;3.61;55.54;101140.06;5041173;28;20176;-84
2022/01/28 00:56:14;;;;;;;12.83;7.20;;;;;;;3.49;55.93;101118.28;5036386;28;20180;-84
2022/01/28 00:58:40;;;;;;;12.30;7.07;;;;;;;3.45;55.43;101116.06;5037168;28;20180;-87
2022/01/28 01:01:05;;;;;;;11.00;7.23;;;;;;;3.36;56.01;101099.69;5039000;28;20228;-85
2022/01/28 01:03:31;;;;;;;11.23;6.90;;;;;;;3.41;55.95;101101.19;5038816;28;20172;-86
2022/01/28 01:05:56;;;;;;;11.60;6.97;;;;;;;3.26;55.45;101069.78;5038582;28;20176;-86
2022/01/28 01:08:23;;;;;;;10.93;6.93;;;;;;;3.18;55.27;101061.22;5039901;28;20171;-85
2022/01/28 01:10:51;;;;;;;10.20;7.07;;;;;;;3.33;56.01;101079.94;5039298;28;20192;-85
2022/01/28 01:13:17;;;;;;;12.97;6.83;;;;;;;3.28;55.59;101070.00;5036592;28;20249;-84
2022/01/28 01:15:46;;;;;;;9.70;6.73;;;;;;;3.19;55.87;101067.19;5042190;28;20212;-86
2022/01/28 01:18:19;;;;;;;10.57;6.13;;;;;;;3.13;55.29;101080.00;5048506;28;20208;-85
2022/01/28 01:23:16;;;;;;;13.40;6.90;;;;;;;3.05;55.79;101069.59;5054976;28;20172;-84
2022/01/28 01:25:55;;;;;;;15.60;7.27;;;;;;;2.93;56.13;101062.28;5057824;28;20160;-85
2022/01/28 01:28:26;;;;;;;12.53;6.97;;;;;;;2.95;56.01;101054.88;5055902;28;20133;-82
2022/01/28 01:30:52;;;;;;;16.33;7.10;;;;;;;2.85;56.58;101042.69;5055770;28;20198;-84
2022/01/28 01:33:19;;;;;;;11.73;6.90;;;;;;;2.81;57.25;101050.59;5055083;28;20168;-84
2022/01/28 01:35:47;;;;;;;14.27;7.87;;;;;;;2.52;57.19;100997.22;5056604;28;20168;-84
2022/01/28 01:38:13;;;;;;;12.40;6.77;;;;;;;2.67;57.19;101036.19;5053792;28;20195;-83
2022/01/28 01:43:18;;;;;;;13.10;7.23;;;;;;;2.49;57.62;101017.06;5055836;28;20168;-84
2022/01/28 01:53:53;;;;;;;11.63;6.90;;;;;;;2.10;57.97;100957.22;5057702;28;20203;-84
2022/01/28 01:56:20;;;;;;;12.77;7.50;;;;;;;2.26;58.27;101003.97;5057374;28;20176;-83
2022/01/28 01:58:47;;;;;;;12.47;7.53;;;;;;;2.30;57.88;101007.81;5058403;28;20184;-83
2022/01/28 02:01:14;;;;;;;12.60;7.33;;;;;;;2.37;58.19;101010.44;5058764;28;20163;-84
2022/01/28 02:03:40;;;;;;;15.90;7.77;;;;;;;2.35;58.06;101000.81;5059087;28;20227;-82
2022/01/28 02:06:05;;;;;;;12.53;7.97;;;;;;;2.35;57.99;100996.66;5058961;28;20192;-81
2022/01/28 02:08:34;;;;;;;14.83;7.93;;;;;;;2.33;58.02;100987.06;5058651;28;20219;-82
2022/01/28 02:11:01;;;;;;;10.27;6.43;;;;;;;2.19;57.50;100957.50;5057763;28;20232;-83
2022/01/28 02:13:29;;;;;;;11.13;6.60;;;;;;;2.22;57.50;100970.53;5056694;28;20216;-84
2022/01/28 02:15:56;;;;;;;9.57;6.23;;;;;;;2.31;57.29;100974.25;5052242;28;20232;-84
2022/01/28 02:18:22;;;;;;;11.67;7.40;;;;;;;1.98;58.05;100917.72;5050827;28;20203;-84
2022/01/28 02:20:50;;;;;;;11.83;7.27;;;;;;;2.14;57.45;100924.03;5053935;28;20168;-84
2022/01/28 02:23:17;;;;;;;11.43;6.83;;;;;;;2.35;57.22;100970.47;5054468;28;20245;-82
2022/01/28 02:25:44;;;;;;;11.67;6.73;;;;;;;2.53;56.61;100968.66;5051778;28;20160;-84
2022/01/28 02:28:13;;;;;;;11.47;7.33;;;;;;;2.59;56.25;100957.53;5045312;28;20239;-82
2022/01/28 02:30:38;;;;;;;9.60;6.60;;;;;;;2.65;56.44;100958.25;5048672;28;20176;-83
2022/01/28 02:33:13;;;;;;;11.83;6.93;;;;;;;2.62;56.03;100965.50;5046579;28;20215;-86
2022/01/28 02:35:42;;;;;;;10.90;6.43;;;;;;;2.71;56.33;100967.56;5048389;28;20183;-83
2022/01/28 02:38:11;;;;;;;11.13;6.80;;;;;;;2.66;56.19;100966.06;5048661;28;20204;-84
2022/01/28 02:40:37;;;;;;;12.93;6.93;;;;;;;2.68;55.82;100966.22;5048952;28;20231;-83
2022/01/28 02:45:49;;;;;;;9.07;6.00;;;;;;;2.82;54.97;100958.78;5043929;28;20171;-84
2022/01/28 02:48:19;;;;;;;10.07;6.07;;;;;;;2.77;54.74;100948.09;5040859;28;20269;-84
2022/01/28 02:51:10;;;;;;;13.33;6.50;;;;;;;2.77;55.10;100934.50;5047522;28;20176;-83
2022/01/28 02:53:46;;;;;;;11.60;6.47;;;;;;;2.93;54.60;100953.44;5043403;28;20202;-84
2022/01/28 02:56:19;;;;;;;11.27;6.70;;;;;;;2.92;54.29;100951.59;5044397;28;20203;-85
2022/01/28 02:58:46;;;;;;;11.90;6.13;;;;;;;2.99;54.05;100959.28;5043256;28;20577;-84
2022/01/28 03:01:14;;;;;;;12.50;6.37;;;;;;;2.53;54.22;100880.13;5038772;28;20176;-83
2022/01/28 03:03:43;;;;;;;10.87;6.03;;;;;;;2.90;53.96;100937.88;5035329;28;20172;-85
2022/01/28 03:06:09;;;;;;;9.77;6.17;;;;;;;2.95;54.00;100936.81;5035105;28;20266;-84
2022/01/28 03:08:34;;;;;;;10.53;6.03;;;;;;;2.86;54.15;100932.22;5034549;28;20272;-84
2022/01/28 03:13:33;;;;;;;8.17;5.47;;;;;;;2.97;53.73;100944.59;5033512;28;20220;-83
2022/01/28 03:16:09;;;;;;;8.90;5.57;;;;;;;2.98;53.30;100938.81;5032390;28;20176;-84
2022/01/28 03:21:24;;;;;;;10.60;6.63;;;;;;;2.91;53.52;100913.47;5032960;28;20168;-85
2022/01/28 03:23:52;;;;;;;10.90;6.37;;;;;;;2.84;53.15;100875.47;5032088;28;20191;-84
2022/01/28 03:26:18;;;;;;;9.27;5.33;;;;;;;3.16;52.83;100928.44;5033344;28;20187;-84
2022/01/28 03:28:44;;;;;;;10.23;6.23;;;;;;;3.13;52.84;100917.03;5033418;28;20188;-85
2022/01/28 03:31:10;;;;;;;11.00;5.90;;;;;;;3.19;52.42;100917.78;5033138;28;20713;-86
2022/01/28 03:33:36;;;;;;;11.30;5.97;;;;;;;2.96;53.02;100845.00;5033860;28;20191;-84
2022/01/28 03:36:06;;;;;;;16.20;6.70;;;;;;;3.38;52.37;100904.13;5032687;28;20190;-85
2022/01/28 03:38:31;;;;;;;9.53;5.70;;;;;;;3.43;51.79;100903.09;5032617;28;20204;-85
2022/01/28 03:40:57;;;;;;;11.77;6.53;;;;;;;3.34;51.37;100879.16;5033088;28;20203;-85
2022/01/28 03:43:23;;;;;;;11.20;6.10;;;;;;;3.34;51.80;100871.56;5035103;28;20191;-85
2022/01/28 03:45:49;;;;;;;9.40;5.80;;;;;;;2.87;51.50;100805.88;5033435;28;20179;-84
2022/01/28 03:48:14;;;;;;;8.80;5.70;;;;;;;3.41;51.64;100891.84;5034801;28;20235;-85
2022/01/28 03:50:40;;;;;;;11.63;6.30;;;;;;;3.00;51.81;100829.44;5037431;28;20235;-84
2022/01/28 03:53:07;;;;;;;11.67;6.10;;;;;;;3.44;51.59;100899.81;5033960;28;20179;-85
2022/01/28 03:55:33;;;;;;;8.43;5.13;;;;;;;3.37;52.15;100892.22;5035476;28;20180;-86
2022/01/28 03:57:59;;;;;;;12.83;5.77;;;;;;;3.43;52.01;100895.50;5033452;28;20203;-84
2022/01/28 04:00:28;;;;;;;9.00;5.30;;;;;;;3.29;51.39;100869.19;5033085;28;20175;-85
2022/01/28 04:03:07;;;;;;;11.07;5.80;;;;;;;3.47;51.29;100895.13;5033110;28;20177;-84
2022/01/28 04:13:53;;;;;;;12.10;5.83;;;;;;;3.36;52.24;100875.16;5032947;28;20286;-83
2022/01/28 04:18:53;;;;;;;9.60;5.57;;;;;;;3.55;51.56;100879.94;5032208;28;20160;-84
2022/01/28 04:21:18;;;;;;;9.07;5.37;;;;;;;3.50;51.41;100874.34;5042543;28;20190;-84
2022/01/28 04:23:44;;;;;;;10.33;5.67;;;;;;;3.52;51.32;100882.09;5051113;28;20648;-83
2022/01/28 04:26:09;;;;;;;9.87;5.73;;;;;;;3.38;51.41;100844.97;5048143;28;20191;-84
2022/01/28 04:28:35;;;;;;;11.13;5.33;;;;;;;3.60;51.61;100874.72;5044658;28;20247;-84
2022/01/28 04:31:00;;;;;;;10.80;5.37;;;;;;;3.64;50.48;100865.88;5045377;28;20431;-82
2022/01/28 04:33:27;;;;;;;13.03;7.03;;;;;;;3.69;51.01;100874.94;5042202;28;20563;-85
2022/01/28 04:35:55;;;;;;;9.50;5.93;;;;;;;3.70;51.31;100872.56;5034792;28;20188;-85
2022/01/28 04:41:36;;;;;;;8.53;5.30;;;;;;;3.90;50.42;100862.31;5033946;28;20263;-84
2022/01/28 04:44:08;;;;;;;12.27;5.83;;;;;;;3.93;50.38;100852.53;5038390;28;20225;-83
2022/01/28 04:47:01;;;;;;;15.67;6.03;;;;;;;3.88;50.73;100824.81;5039387;28;20195;-82
2022/01/28 04:49:21;;;;;;;13.30;6.83;;;;;;;3.94;50.91;100846.75;5041704;28;20188;-84
2022/01/28 05:02:33;;;;;;;12.77;6.90;;;;;;;4.30;50.04;100846.78;5035252;28;20180;-81
2022/01/28 05:05:27;;;;;;;11.07;7.03;;;;;;;4.35;49.56;100853.28;5033689;28;20672;-81
2022/01/28 05:28:58;;;;;;;12.27;6.50;;;;;;;4.59;49.16;100852.72;5034570;28;20167;-81
2022/01/28 05:31:23;;;;;;;11.40;6.53;;;;;;;4.44;48.72;100860.19;5033994;28;20172;-80
2022/01/28 05:33:49;;;;;;;11.57;5.77;;;;;;;4.51;48.81;100861.06;5034285;28;20238;-81
2022/01/28 05:36:15;;;;;;;10.90;6.10;;;;;;;4.62;49.14;100858.16;5034216;28;20184;-80
2022/01/28 05:38:41;;;;;;;15.73;6.90;;;;;;;4.73;48.76;100854.31;5034064;28;20208;-82
2022/01/28 05:41:06;;;;;;;12.37;7.10;;;;;;;4.76;48.94;100863.94;5034646;28;20187;-82
2022/01/28 05:43:32;;;;;;;13.80;6.97;;;;;;;4.70;48.97;100861.59;5034373;28;20182;-81
2022/01/28 05:45:59;;;;;;;26.67;8.80;;;;;;;4.33;49.39;100814.16;5034397;28;20180;-80
2022/01/28 05:48:24;;;;;;;11.40;6.73;;;;;;;4.88;49.36;100865.38;5033933;28;20254;-81
2022/01/28 05:50:50;;;;;;;12.60;6.33;;;;;;;4.87;48.64;100873.72;5034135;28;20175;-80
2022/01/28 05:53:16;;;;;;;15.37;8.10;;;;;;;4.70;48.90;100845.44;5034357;28;20180;-82
2022/01/28 05:55:41;;;;;;;16.13;7.63;;;;;;;4.68;49.38;100834.25;5033776;28;20171;-81
2022/01/28 05:58:07;;;;;;;22.43;8.33;;;;;;;4.95;48.73;100878.03;5035030;28;20651;-80
2022/01/28 06:00:33;;;;;;;17.23;8.47;;;;;;;4.96;49.01;100878.97;5033899;28;20179;-80
2022/01/28 06:03:00;;;;;;;21.93;9.03;;;;;;;4.98;49.62;100862.25;5033956;28;20646;-81
2022/01/28 06:05:30;;;;;;;18.80;9.20;;;;;;;5.08;49.47;100882.94;5033279;28;20186;-82
2022/01/28 06:08:00;;;;;;;18.83;8.53;;;;;;;5.13;49.23;100876.72;5035460;28;20249;-80
2022/01/28 06:10:26;;;;;;;14.13;7.27;;;;;;;5.14;48.92;100870.94;5033404;28;20655;-80
2022/01/28 06:12:52;;;;;;;13.13;6.80;;;;;;;4.63;49.50;100780.38;5036716;28;20228;-82
2022/01/28 06:15:17;;;;;;;13.53;7.63;;;;;;;5.35;48.47;100890.25;5033892;28;20221;-82
2022/01/28 06:17:43;;;;;;;16.83;8.67;;;;;;;5.24;48.79;100881.44;5036625;28;20726;-83
2022/01/28 06:20:13;;;;;;;16.83;8.43;;;;;;;5.32;48.77;100883.19;5034814;28;20663;-83
2022/01/28 06:22:40;;;;;;;19.57;10.43;;;;;;;5.31;48.12;100876.31;5034361;28;20180;-85
2022/01/28 06:25:07;;;;;;;21.47;8.70;;;;;;;5.24;49.04;100883.97;5033347;28;20725;-81
2022/01/28 06:27:33;;;;;;;19.93;8.33;;;;;;;5.07;48.50;100855.69;5033836;28;20280;-83
2022/01/28 06:29:58;;;;;;;21.87;8.73;;;;;;;5.28;47.79;100864.91;5035131;28;20214;-85
2022/01/28 06:32:24;;;;;;;15.47;8.37;;;;;;;5.43;47.81;100870.84;5032388;28;20726;-82
2022/01/28 06:34:49;;;;;;;14.60;7.10;;;;;;;5.21;47.32;100853.13;5033957;28;20180;-79
2022/01/28 06:37:16;;;;;;;14.80;6.80;;;;;;;5.43;47.18;100879.34;5035805;28;20361;-82
2022/01/28 06:39:41;;;;;;;14.33;7.33;;;;;;;5.39;47.35;100876.28;5033036;28;20659;-84
2022/01/28 06:42:07;;;;;;;14.27;7.53;;;;;;;5.38;47.45;100877.91;5033337;28;20179;-83
2022/01/28 06:44:33;;;;;;;16.93;8.13;;;;;;;5.15;47.48;100833.75;5032957;28;20172;-84
2022/01/28 06:46:58;;;;;;;15.27;6.85;;;;;;;5.59;46.81;100879.47;5032952;28;20196;-83
2022/01/28 06:49:24;;;;;;;15.03;6.43;;;;;;;5.57;47.13;100873.28;5033218;28;20546;-84
2022/01/28 06:51:49;;;;;;;12.73;7.00;;;;;;;5.61;46.19;100885.63;5033079;28;20241;-84
2022/01/28 06:54:15;;;;;;;17.20;7.80;;;;;;;5.57;46.49;100888.53;5036868;28;20184;-84
2022/01/28 06:56:42;;;;;;;17.27;9.43;;;;;;;5.60;46.87;100881.25;5036474;28;20172;-83
2022/01/28 06:59:11;;;;;;;13.83;7.97;;;;;;;5.54;46.50;100871.34;5039741;28;20204;-82
2022/01/28 07:01:37;;;;;;;23.83;10.25;;;;;;;5.53;46.86;100876.22;5039947;28;20172;-82
2022/01/28 07:04:04;;;;;;;15.13;7.57;;;;;;;5.25;47.11;100845.13;5037440;28;20599;-86
2022/01/28 07:06:29;;;;;;;20.38;8.20;;;;;;;5.37;47.06;100849.81;5033003;28;20180;-82
2022/01/28 07:08:55;;;;;;;17.20;8.77;;;;;;;5.44;46.71;100886.25;5034075;28;20172;-83
2022/01/28 07:11:20;;;;;;;14.48;8.18;;;;;;;5.46;46.77;100871.19;5033852;28;20187;-87
2022/01/28 07:13:46;;;;;;;21.25;9.88;;;;;;;5.53;47.60;100894.00;5038565;28;20242;-81
2022/01/28 07:16:11;;;;;;;18.50;8.02;;;;;;;5.47;47.68;100893.31;5038388;28;20203;-85
2022/01/28 07:18:37;;;;;;;13.60;7.88;;;;;;;5.38;47.82;100872.84;5044695;28;20212;-86
2022/01/28 07:21:02;;;;;;;15.88;9.35;;;;;;;5.47;47.91;100884.03;5046225;28;20179;-85
2022/01/28 07:23:29;;;;;;;12.43;7.47;;;;;;;5.53;47.12;100877.13;5050884;28;20186;-85
2022/01/28 07:25:55;;;;;;;26.88;8.93;;;;;;;5.44;47.51;100865.00;5044190;28;20180;-85
2022/01/28 07:28:24;;;;;;;24.27;8.10;;;;;;;5.39;47.92;100878.81;5041852;28;20649;-89
2022/01/28 07:30:49;;;;;;;19.30;8.17;;;;;;;4.99;48.12;100803.16;5034062;28;20180;-87
2022/01/28 07:33:15;;;;;;;26.50;9.87;;;;;;;5.30;48.94;100859.25;5035748;28;20184;-87
2022/01/28 07:35:40;;;;;;;38.80;9.57;;;;;;;5.02;49.02;100817.09;5034988;28;20175;-89
2022/01/28 07:38:07;;;;;;;21.47;8.60;;;;;;;5.30;49.22;100873.59;5034407;28;20203;-88
2022/01/28 07:40:33;;;;;;;17.07;7.20;;;;;;;5.41;49.52;100877.38;5033797;28;20182;-88
2022/01/28 07:42:59;;;;;;;18.23;8.48;;;;;;;5.44;49.59;100892.97;5034141;28;20382;-87
2022/01/28 07:45:25;;;;;;;14.43;7.80;;;;;;;5.45;49.57;100904.94;5044320;28;20730;-83
2022/01/28 07:47:51;;;;;;;16.10;8.77;;;;;;;5.49;50.06;100919.81;5045673;28;20188;-86
2022/01/28 07:50:17;;;;;;;16.88;9.02;;;;;;;5.33;50.46;100895.19;5046917;28;20183;-87
2022/01/28 07:52:43;;;;;;;23.30;9.07;;;;;;;5.42;50.96;100913.13;5051791;28;20176;-87
2022/01/28 07:55:14;;;;;;;16.17;9.07;;;;;;;5.39;51.05;100914.38;5050219;28;20160;-85
2022/01/28 07:57:40;;;;;;;17.75;8.75;;;;;;;5.40;50.74;100906.06;5055127;28;20204;-80
2022/01/28 08:00:08;;;;;;;18.67;9.20;;;;;;;5.45;50.67;100910.94;5050776;28;20169;-80
2022/01/28 08:02:34;;;;;;;21.23;8.60;;;;;;;5.37;50.70;100881.19;5056527;28;20163;-84
2022/01/28 08:05:00;;;;;;;14.52;8.65;;;;;;;5.64;50.97;100901.25;5056311;28;20232;-83
2022/01/28 08:07:26;;;;;;;18.10;8.73;;;;;;;5.35;50.99;100847.06;5046624;28;20184;-85
2022/01/28 08:09:51;;;;;;;16.17;8.67;;;;;;;5.70;50.10;100876.50;5039684;28;20636;-82
2022/01/28 08:12:17;;;;;;;13.65;8.27;;;;;;;6.08;49.78;100904.50;5049263;28;20219;-83
2022/01/28 08:14:42;;;;;;;15.68;8.73;;;;;;;6.29;49.06;100909.41;5039781;28;20645;-84
2022/01/28 08:17:08;;;;;;;16.88;10.27;;;;;;;6.00;49.14;100829.84;5047936;28;20184;-83
2022/01/28 08:19:33;;;;;;;19.50;9.27;;;;;;;6.49;48.90;100891.25;5049994;28;20202;-85
2022/01/28 08:21:59;;;;;;;17.08;10.57;;;;;;;6.57;48.55;100881.91;5050931;28;20203;-85
2022/01/28 08:24:24;;;;;;;20.65;11.07;;;;;;;6.78;48.81;100893.56;5046249;28;20172;-87
2022/01/28 08:26:50;;;;;;;26.50;12.90;;;;;;;6.90;48.63;100872.88;5053864;28;20226;-81
2022/01/28 08:29:16;;;;;;;23.30;11.90;;;;;;;6.98;48.22;100848.22;5041361;28;20168;-81
2022/01/28 08:31:42;;;;;;;23.85;14.50;;;;;;;7.08;48.39;100867.97;5046441;28;20263;-82
2022/01/28 08:34:08;;;;;;;18.40;9.98;;;;;;;7.30;47.78;100910.31;5038974;28;20179;-84
2022/01/28 08:36:34;;;;;;;18.40;9.60;;;;;;;7.26;47.97;100894.50;5038461;28;20702;-85
2022/01/28 08:39:00;;;;;;;19.13;10.85;;;;;;;7.27;47.79;100891.22;5038242;28;20197;-82
2022/01/28 08:41:26;;;;;;;20.98;9.30;;;;;;;7.43;47.58;100896.31;5037834;28;20655;-83
2022/01/28 08:43:52;;;;;;;16.88;9.15;;;;;;;7.36;47.75;100837.03;5036083;28;20176;-81
2022/01/28 08:46:18;;;;;;;17.75;9.85;;;;;;;7.64;48.03;100856.16;5037790;28;20254;-83
2022/01/28 08:48:44;;;;;;;16.15;10.45;;;;;;;7.60;47.44;100848.94;5036745;28;20636;-82
2022/01/28 08:51:09;;;;;;;19.45;9.93;;;;;;;7.82;47.68;100869.03;5035354;28;20184;-82
2022/01/28 08:53:37;;;;;;;17.42;9.73;;;;;;;8.17;47.58;100866.69;5035457;28;20172;-81
2022/01/28 08:56:03;;;;;;;19.38;10.35;;;;;;;8.18;47.17;100848.97;5035796;28;20244;-81
2022/01/28 08:58:28;;;;;;;20.23;8.98;;;;;;;8.40;46.78;100854.66;5033938;28;20203;-82
2022/01/28 09:00:54;;;;;;;17.67;9.73;;;;;;;8.52;46.63;100852.47;5035956;28;20186;-82
2022/01/28 09:03:21;;;;;;;18.15;9.38;;;;;;;8.61;46.52;100849.94;5035325;28;20186;-84
2022/01/28 09:05:46;;;;;;;14.48;8.52;;;;;;;8.88;45.69;100839.97;5035036;28;20172;-79
2022/01/28 09:08:12;;;;;;;16.20;9.13;;;;;;;8.94;45.64;100837.09;5034654;28;20180;-76
2022/01/28 09:10:43;;;;;;;18.30;8.82;;;;;;;9.08;46.01;100857.28;5034714;28;20176;-78
2022/01/28 09:15:37;;;;;;;14.13;8.52;;;;;;;9.29;45.47;100850.84;5034357;28;20164;-76
2022/01/28 09:18:03;;;;;;;16.25;8.60;;;;;;;9.38;45.05;100856.84;5034233;28;20597;-78
2022/01/28 09:20:31;;;;;;;15.50;9.18;;;;;;;9.24;45.68;100844.34;5034477;28;20176;-76
2022/01/28 09:22:57;;;;;;;20.52;9.55;;;;;;;9.56;45.06;100905.44;5034350;28;20605;-78
2022/01/28 09:25:23;;;;;;;14.57;8.82;;;;;;;9.67;44.82;100892.06;5033677;28;20203;-79
2022/01/28 09:27:49;;;;;;;15.60;8.73;;;;;;;9.60;45.14;100857.31;5034099;28;20277;-78
2022/01/28 09:30:15;;;;;;;18.55;10.10;;;;;;;10.04;44.52;100893.97;5033682;28;20183;-76
2022/01/28 09:32:40;;;;;;;17.08;9.23;;;;;;;10.16;44.35;100904.50;5033951;28;20176;-80
2022/01/28 09:35:06;;;;;;;19.27;9.57;;;;;;;10.26;43.67;100902.09;5034176;28;20589;-80
2022/01/28 09:37:34;;;;;;;21.48;8.57;;;;;;;10.36;43.17;100901.31;5034334;28;20281;-81
2022/01/28 09:39:59;;;;;;;13.45;8.60;;;;;;;10.44;43.60;100886.69;5033321;28;20629;-78
2022/01/28 09:42:29;;;;;;;12.38;8.82;;;;;;;10.59;42.88;100883.91;5033940;28;20263;-79
2022/01/28 09:44:55;;;;;;;19.15;9.32;;;;;;;10.63;42.92;100868.06;5033930;28;20255;-79
2022/01/28 09:47:21;;;;;;;17.00;8.55;;;;;;;10.86;42.69;100870.19;5033559;28;20749;-79
2022/01/28 09:49:47;;;;;;;17.55;9.25;;;;;;;10.95;42.40;100859.00;5034115;28;20271;-78
2022/01/28 09:52:13;;;;;;;15.23;9.40;;;;;;;11.02;42.54;100871.63;5033894;28;20209;-77
2022/01/28 09:54:43;;;;;;;17.58;8.68;;;;;;;11.15;42.52;100884.78;5034519;28;20168;-79
2022/01/28 09:57:09;;;;;;;20.73;9.23;;;;;;;11.14;42.79;100884.66;5036042;28;20675;-78
2022/01/28 09:59:37;;;;;;;15.15;8.48;;;;;;;11.04;42.79;100847.91;5033650;28;20186;-79
2022/01/28 10:02:03;;;;;;;15.80;8.25;;;;;;;11.37;41.98;100872.31;5033482;28;20216;-80
2022/01/28 10:04:34;;;;;;;24.38;9.50;;;;;;;11.46;41.96;100859.38;5036363;28;20202;-80
2022/01/28 10:07:09;;;;;;;19.02;10.13;;;;;;;11.86;41.45;100897.25;5016206;28;20192;-79
2022/01/28 10:09:35;;;;;;;16.60;9.27;;;;;;;11.96;41.44;100897.34;5033753;28;20297;-82
2022/01/28 10:12:17;;;;;;;19.60;8.73;;;;;;;12.01;41.25;100903.75;5033582;28;20200;-81
2022/01/28 10:15:07;;;;;;;17.60;9.13;;;;;;;12.06;41.12;100904.19;5033097;28;20294;-79
2022/01/28 10:17:52;;;;;;;22.63;8.23;;;;;;;11.68;41.06;100833.97;5034159;28;20694;-80
2022/01/28 10:20:22;;;;;;;18.42;9.50;;;;;;;12.14;41.28;100904.84;5033479;28;20191;-79
2022/01/28 10:22:53;;;;;;;16.83;10.40;;;;;;;12.01;41.58;100866.91;5033462;28;20167;-78
2022/01/28 10:25:34;;;;;;;16.33;10.45;;;;;;;12.30;40.86;100891.69;5034568;28;20179;-81
2022/01/28 10:28:10;;;;;;;15.35;9.02;;;;;;;12.13;40.88;100847.44;5035922;28;20179;-80
2022/01/28 10:30:42;;;;;;;16.58;8.55;;;;;;;12.47;40.66;100883.78;5039959;28;20186;-81
2022/01/28 10:33:23;;;;;;;17.25;9.20;;;;;;;12.76;40.99;100885.38;5045601;28;20172;-80
2022/01/28 10:36:07;;;;;;;17.30;9.65;;;;;;;13.05;40.24;100880.13;5054782;28;20178;-81
2022/01/28 10:38:37;;;;;;;17.77;8.48;;;;;;;13.08;40.08;100859.81;5054492;28;20197;-82
2022/01/28 10:41:15;;;;;;;16.85;8.00;;;;;;;13.21;40.15;100872.97;5032441;28;20198;-80
2022/01/28 10:43:48;;;;;;;13.57;8.38;;;;;;;13.45;40.17;100874.09;5050355;28;20176;-81
2022/01/28 10:46:35;;;;;;;12.52;8.38;;;;;;;13.70;39.81;100860.69;5043424;28;20671;-80
2022/01/28 10:49:03;;;;;;;12.43;7.50;;;;;;;13.85;39.66;100860.25;5051159;28;20224;-79
2022/01/28 10:52:01;;;;;;;12.75;7.78;;;;;;;14.06;39.51;100849.88;5039382;28;20199;-78
2022/01/28 10:54:26;;;;;;;12.02;8.27;;;;;;;14.22;38.86;100836.53;5044739;28;20287;-80
2022/01/28 10:56:54;;;;;;;12.23;7.90;;;;;;;14.63;39.00;100833.72;5041911;28;20184;-78
2022/01/28 10:59:26;;;;;;;21.30;8.90;;;;;;;15.01;37.88;100839.25;5038886;28;20176;-80
2022/01/28 11:01:53;;;;;;;13.95;8.00;;;;;;;15.25;37.72;100815.28;5042684;28;20180;-79
2022/01/28 11:04:19;;;;;;;19.23;10.73;;;;;;;15.17;37.73;100764.78;5047390;28;20663;-78
2022/01/28 11:06:46;;;;;;;82.63;36.70;;;;;;;15.41;38.13;100796.66;5053918;28;20251;-81
2022/01/28 11:09:14;;;;;;;84.53;35.90;;;;;;;15.38;37.33;100795.53;5056727;28;20183;-81
2022/01/28 11:11:40;;;;;;;52.22;27.33;;;;;;;15.27;37.96;100789.59;5058331;28;20193;-79
2022/01/28 11:14:06;;;;;;;106.32;48.30;;;;;;;15.15;38.00;100757.72;5053274;28;20224;-78
2022/01/28 11:16:32;;;;;;;175.18;65.40;;;;;;;15.25;38.14;100786.88;5051493;28;20174;-77
2022/01/28 11:18:59;;;;;;;132.00;50.75;;;;;;;15.13;38.48;100790.25;5050622;28;20204;-78
2022/01/28 11:21:44;;;;;;;197.40;72.80;;;;;;;14.88;38.76;100754.84;5045766;28;20729;-77
2022/01/28 11:24:37;;;;;;;179.43;62.83;;;;;;;15.15;38.70;100780.94;5054295;28;20179;-77
2022/01/28 11:27:31;;;;;;;107.05;42.88;;;;;;;15.49;38.21;100781.75;5048911;28;20184;-76
2022/01/28 11:30:25;;;;;;;26.92;8.82;;;;;;;15.48;37.99;100793.75;5050702;28;20448;-74
2022/01/28 11:33:00;;;;;;;114.47;37.17;;;;;;;15.33;38.51;100781.41;5042731;28;20230;-72
2022/01/28 11:35:27;;;;;;;119.72;39.22;;;;;;;15.13;38.93;100767.00;5038804;28;20168;-73
2022/01/28 11:37:56;;;;;;;41.30;15.38;;;;;;;15.01;39.88;100791.13;5046004;28;20207;-80
2022/01/28 11:40:23;;;;;;;138.73;53.38;;;;;;;14.47;40.70;100764.59;5038866;28;20242;-75
2022/01/28 11:42:48;;;;;;;36.80;14.27;;;;;;;14.29;41.05;100811.34;5036257;28;20175;-75
2022/01/28 11:45:14;;;;;;;34.92;15.02;;;;;;;13.86;42.09;100799.31;5034884;28;20186;-78
2022/01/28 11:47:51;;;;;;;253.88;90.15;;;;;;;13.42;42.75;100746.84;5034300;28;20203;-76
2022/01/28 11:50:21;;;;;;;225.93;82.00;;;;;;;13.45;43.35;100781.44;5032078;28;20183;-75
2022/01/28 11:52:50;;;;;;;97.53;34.55;;;;;;;13.37;43.67;100800.53;5034622;28;20198;-76
2022/01/28 11:55:18;;;;;;;29.15;13.95;;;;;;;13.12;43.63;100803.63;5041393;28;20179;-77
2022/01/28 11:57:52;;;;;;;20.73;9.02;;;;;;;12.66;44.33;100757.72;5043741;28;20208;-76
2022/01/28 12:00:28;;;;;;;16.40;7.35;;;;;;;12.75;45.06;100780.75;5044268;28;20179;-77
2022/01/28 12:02:55;;;;;;;13.57;7.85;;;;;;;12.57;45.47;100787.81;5047152;28;20168;-77
2022/01/28 12:05:29;;;;;;;16.40;7.35;;;;;;;12.22;46.16;100765.16;5048131;28;20182;-79
2022/01/28 12:08:04;;;;;;;15.85;8.10;;;;;;;12.24;46.54;100761.94;5043897;28;20171;-74
2022/01/28 12:10:32;;;;;;;15.85;8.25;;;;;;;12.31;46.59;100777.88;5042816;28;20190;-77
2022/01/28 12:13:05;;;;;;;14.48;7.90;;;;;;;12.32;46.86;100766.81;5046579;28;20258;-77
2022/01/28 12:16:13;;;;;;;14.30;7.93;;;;;;;12.11;47.04;100709.38;5044111;28;20176;-72
2022/01/28 12:18:53;;;;;;;12.73;7.63;;;;;;;12.50;46.38;100782.91;5037148;28;20267;-77
2022/01/28 12:21:26;;;;;;;18.33;8.50;;;;;;;12.41;46.85;100778.78;5033040;28;20648;-74
2022/01/28 12:23:54;;;;;;;15.80;7.65;;;;;;;12.11;46.59;100743.66;5032086;28;20176;-76
2022/01/28 12:26:21;;;;;;;13.80;7.53;;;;;;;12.24;46.49;100779.00;5032247;28;20186;-75
2022/01/28 12:28:48;;;;;;;12.75;7.57;;;;;;;12.08;46.60;100760.47;5032512;28;20188;-75
2022/01/28 12:31:23;;;;;;;12.52;7.68;;;;;;;12.14;46.62;100776.41;5031946;28;20202;-75
2022/01/28 12:33:51;;;;;;;12.30;7.85;;;;;;;12.09;46.68;100770.00;5031526;28;20179;-77
2022/01/28 12:36:22;;;;;;;13.13;7.03;;;;;;;11.68;47.01;100744.13;5031137;28;20203;-76
2022/01/28 12:39:09;;;;;;;10.85;7.40;;;;;;;11.52;47.30;100704.28;5030770;28;20195;-75
2022/01/28 12:41:48;;;;;;;16.33;8.02;;;;;;;11.89;47.09;100765.69;5029500;28;20707;-75
2022/01/28 12:44:15;;;;;;;15.00;8.98;;;;;;;11.65;46.99;100741.28;5031173;28;20168;-76
2022/01/28 12:46:45;;;;;;;14.52;9.02;;;;;;;11.61;46.93;100791.47;5030781;28;20199;-75
2022/01/28 12:49:11;;;;;;;15.75;9.00;;;;;;;11.57;47.33;100791.97;5031081;28;20550;-75
2022/01/28 12:51:39;;;;;;;11.75;8.10;;;;;;;11.46;47.07;100792.66;5030825;28;20172;-76
2022/01/28 12:54:05;;;;;;;15.95;8.20;;;;;;;11.39;47.25;100791.22;5031160;28;20194;-77
2022/01/28 12:56:33;;;;;;;23.45;10.10;;;;;;;11.39;47.10;100796.34;5030923;28;20179;-76
2022/01/28 12:59:00;;;;;;;19.35;8.50;;;;;;;11.38;47.46;100803.94;5030826;28;20266;-76
2022/01/28 13:01:25;;;;;;;18.00;7.68;;;;;;;11.12;47.15;100788.72;5031040;28;20249;-77